Weather at Brunette Downs Airport

Public forecast

Using degrees Celsius for public forecast. Weather courtesy of forecast.io.

Closest aviation weather report (METAR) to Brunette Downs Airport

Closest report is Mount Isa Airport, 234.7 nm (434.7 km) ESE.

2024/04/23 00:30 (retrieved 27 minutes ago)

YBMA 230030Z AUTO 07010KT 9999 // NCD 26/14 Q1017 RF000/0000

Closest aviation forecast (TAF) to Brunette Downs Airport

Closest forecast is East Kimberley Regional (Kununurra) Airport, 448.7 nm (831.1 km) WNW.

2024/04/22 20:00 (retrieved 5 hours ago)

TAF YPKU 221929Z 2220/2308 16005KT CAVOK FM230000 12010KT CAVOK